Time;durP1;ratioP1;P1;durP2;ratioP2;P2;SDS_P1;SDS_P2;PMS_P1;PMS_P2;Temp;Humidity;BMP_temperature;BMP_pressure;BME280_temperature;BME280_humidity;BME280_pressure;Samples;Min_cycle;Max_cycle;Signal;HPM_P1;HPM_P2
2021/11/03 00:01:06;;;;;;;7.53;3.70;;;;;;;2.66;100.00;94900.06;5036986;28;20129;-73
2021/11/03 00:03:34;;;;;;;7.70;3.73;;;;;;;2.65;100.00;94901.84;5036182;28;20113;-74
2021/11/03 00:06:00;;;;;;;7.00;3.37;;;;;;;2.72;100.00;94891.72;5057768;28;20058;-72
2021/11/03 00:08:28;;;;;;;7.37;3.77;;;;;;;2.65;100.00;94901.00;5043870;28;20028;-73
2021/11/03 00:10:55;;;;;;;7.87;4.27;;;;;;;2.66;100.00;94892.28;5053904;28;20025;-72
2021/11/03 00:13:24;;;;;;;9.53;5.30;;;;;;;2.65;100.00;94891.47;5049365;28;20474;-73
2021/11/03 00:15:54;;;;;;;11.87;5.93;;;;;;;2.67;100.00;94905.09;5042711;28;20024;-73
2021/11/03 00:18:21;;;;;;;10.43;6.33;;;;;;;2.65;100.00;94903.59;5038597;28;20075;-74
2021/11/03 00:20:47;;;;;;;11.27;6.87;;;;;;;2.63;100.00;94903.75;5043117;28;20025;-73
2021/11/03 00:23:13;;;;;;;11.27;6.10;;;;;;;2.60;100.00;94902.25;5052332;28;20043;-74
2021/11/03 00:25:45;;;;;;;10.10;5.70;;;;;;;2.59;100.00;94894.63;5059507;28;20024;-74
2021/11/03 00:28:13;;;;;;;10.83;7.10;;;;;;;2.54;100.00;94899.41;5046199;28;20060;-74
2021/11/03 00:30:39;;;;;;;14.53;7.53;;;;;;;2.55;100.00;94894.09;5047881;28;20028;-73
2021/11/03 00:33:05;;;;;;;13.27;7.20;;;;;;;2.61;100.00;94895.28;5042384;28;20024;-72
2021/11/03 00:35:32;;;;;;;13.00;7.87;;;;;;;2.61;100.00;94895.28;5066769;28;20100;-74
2021/11/03 00:37:58;;;;;;;14.23;7.70;;;;;;;2.65;100.00;94895.81;5039050;28;20040;-74
2021/11/03 00:40:24;;;;;;;11.63;7.63;;;;;;;2.68;100.00;94905.91;5015884;28;20024;-74
2021/11/03 00:42:50;;;;;;;13.07;7.80;;;;;;;2.65;100.00;94909.63;5041298;28;20031;-73
2021/11/03 00:45:18;;;;;;;12.57;8.00;;;;;;;2.65;100.00;94911.38;5042996;28;20424;-74
2021/11/03 00:47:44;;;;;;;13.33;8.53;;;;;;;2.65;100.00;94908.78;5039554;28;20035;-74
2021/11/03 00:50:11;;;;;;;14.40;8.50;;;;;;;2.64;100.00;94909.75;5022414;28;20028;-74
2021/11/03 00:52:38;;;;;;;12.47;8.10;;;;;;;2.66;100.00;94900.06;5022920;28;20123;-73
2021/11/03 00:55:05;;;;;;;15.00;9.53;;;;;;;2.65;100.00;94906.19;5040005;28;20024;-74
2021/11/03 00:57:32;;;;;;;15.37;9.23;;;;;;;2.70;100.00;94894.44;5028912;28;20044;-73
2021/11/03 00:59:58;;;;;;;17.40;10.43;;;;;;;2.73;100.00;94904.53;5041152;28;20032;-73
2021/11/03 01:02:24;;;;;;;14.10;9.87;;;;;;;2.68;100.00;94911.91;5026131;28;20033;-74
2021/11/03 01:04:51;;;;;;;15.60;10.37;;;;;;;2.69;100.00;94917.94;5015152;28;20028;-73
2021/11/03 01:07:17;;;;;;;19.33;12.30;;;;;;;2.66;100.00;94913.84;5021761;28;20145;-74
2021/11/03 01:09:43;;;;;;;18.33;11.73;;;;;;;2.75;100.00;94901.78;5017510;28;20497;-73
2021/11/03 01:12:09;;;;;;;17.33;11.43;;;;;;;2.76;100.00;94908.63;5034217;28;20075;-73
2021/11/03 01:14:35;;;;;;;19.57;10.90;;;;;;;2.76;100.00;94906.03;5046252;28;20040;-74
2021/11/03 01:17:01;;;;;;;17.47;11.67;;;;;;;2.80;100.00;94904.78;5026461;28;20024;-74
2021/11/03 01:19:27;;;;;;;18.87;12.17;;;;;;;2.81;100.00;94898.59;5062537;28;20227;-73
2021/11/03 01:21:53;;;;;;;17.20;12.53;;;;;;;2.83;100.00;94883.72;5061104;28;20032;-74
2021/11/03 01:24:21;;;;;;;17.13;11.13;;;;;;;2.87;100.00;94884.25;5037087;28;20028;-74
2021/11/03 01:26:46;;;;;;;16.57;11.60;;;;;;;2.83;100.00;94881.13;5057823;28;20455;-73
2021/11/03 01:29:12;;;;;;;18.53;12.17;;;;;;;2.85;100.00;94871.41;5035969;28;20438;-73
2021/11/03 01:31:38;;;;;;;15.83;10.83;;;;;;;2.85;100.00;94868.81;5037090;28;20090;-74
2021/11/03 01:34:04;;;;;;;17.67;11.67;;;;;;;2.88;100.00;94859.91;5034749;28;20040;-73
2021/11/03 01:36:30;;;;;;;16.77;11.90;;;;;;;2.91;100.00;94864.81;5036143;28;20047;-74
2021/11/03 01:38:57;;;;;;;15.97;11.37;;;;;;;2.91;100.00;94859.63;5048090;28;20354;-73
2021/11/03 01:41:23;;;;;;;17.33;11.03;;;;;;;2.95;100.00;94851.41;5025173;28;20119;-74
2021/11/03 01:44:12;;;;;;;16.07;11.20;;;;;;;2.90;100.00;94842.41;5048871;28;20020;-73
2021/11/03 01:46:51;;;;;;;15.00;10.07;;;;;;;2.90;100.00;94834.63;5060483;28;20059;-74
2021/11/03 01:49:26;;;;;;;15.80;11.03;;;;;;;2.94;100.00;94818.59;5033500;28;20103;-75
2021/11/03 01:52:03;;;;;;;16.73;10.47;;;;;;;2.95;100.00;94825.44;5039634;28;20025;-74
2021/11/03 01:54:40;;;;;;;15.37;10.23;;;;;;;3.00;100.00;94818.00;5040987;28;20059;-74
2021/11/03 01:57:11;;;;;;;16.60;10.37;;;;;;;3.08;100.00;94814.66;5036333;28;20029;-74
2021/11/03 01:59:42;;;;;;;16.70;10.17;;;;;;;3.06;100.00;94807.03;5040367;28;20037;-74
2021/11/03 02:02:09;;;;;;;15.83;10.27;;;;;;;3.16;100.00;94806.16;5041617;28;20058;-74
2021/11/03 02:04:36;;;;;;;16.23;10.40;;;;;;;3.25;100.00;94813.03;5040460;28;20025;-74
2021/11/03 02:07:08;;;;;;;15.87;9.73;;;;;;;3.27;100.00;94814.50;5023769;28;20032;-74
2021/11/03 02:09:34;;;;;;;14.90;9.47;;;;;;;3.34;100.00;94808.72;5045614;28;20394;-74
2021/11/03 02:11:59;;;;;;;15.00;9.30;;;;;;;3.39;100.00;94809.91;5064672;28;20043;-73
2021/11/03 02:14:26;;;;;;;16.20;8.73;;;;;;;3.50;100.00;94808.84;5033796;28;20047;-74
2021/11/03 02:16:52;;;;;;;12.93;8.27;;;;;;;3.52;100.00;94806.91;5023864;28;20028;-74
2021/11/03 02:19:30;;;;;;;13.23;8.40;;;;;;;3.60;100.00;94811.38;5050973;28;20027;-74
2021/11/03 02:22:07;;;;;;;13.37;8.63;;;;;;;3.66;100.00;94801.19;5043445;28;20067;-73
2021/11/03 02:24:46;;;;;;;12.70;8.43;;;;;;;3.66;100.00;94802.97;5036812;28;20028;-73
2021/11/03 02:27:14;;;;;;;13.33;9.03;;;;;;;3.65;100.00;94801.31;5026330;28;20138;-72
2021/11/03 02:29:39;;;;;;;14.43;8.27;;;;;;;3.65;100.00;94809.13;5055548;28;20078;-72
2021/11/03 02:32:18;;;;;;;12.70;7.80;;;;;;;3.69;100.00;94808.69;5026914;28;20020;-72
2021/11/03 02:34:44;;;;;;;12.23;7.63;;;;;;;3.65;100.00;94801.31;5030004;28;20090;-73
2021/11/03 02:37:28;;;;;;;10.00;7.30;;;;;;;3.63;100.00;94809.28;5060239;28;20020;-74
2021/11/03 02:40:22;;;;;;;12.17;7.53;;;;;;;3.60;100.00;94803.56;5021774;28;20641;-74
2021/11/03 02:42:58;;;;;;;12.20;7.37;;;;;;;3.67;100.00;94804.59;4994736;28;20073;-73
2021/11/03 02:45:37;;;;;;;11.80;7.13;;;;;;;3.54;100.00;94812.78;5040312;28;20037;-74
2021/11/03 02:48:04;;;;;;;13.03;7.47;;;;;;;3.54;100.00;94792.78;5035760;28;20024;-74
2021/11/03 02:50:30;;;;;;;13.47;7.87;;;;;;;3.59;100.00;94788.91;5056764;28;20021;-74
2021/11/03 02:52:55;;;;;;;12.70;8.03;;;;;;;3.51;100.00;94782.69;5036884;28;20035;-74
2021/11/03 02:55:21;;;;;;;12.83;8.43;;;;;;;3.51;100.00;94777.50;5036639;28;20024;-74
2021/11/03 02:57:47;;;;;;;14.37;8.60;;;;;;;3.50;100.00;94777.66;5044183;28;20097;-74
2021/11/03 03:00:17;;;;;;;13.03;7.87;;;;;;;3.51;100.00;94774.91;5028218;28;20029;-74
2021/11/03 03:02:44;;;;;;;12.00;8.13;;;;;;;3.51;100.00;94774.09;5015729;28;21160;-73
2021/11/03 03:05:10;;;;;;;12.37;8.87;;;;;;;3.46;100.00;94777.16;5026482;28;20058;-74
2021/11/03 03:07:36;;;;;;;12.37;7.93;;;;;;;3.49;100.00;94773.44;5043943;28;20642;-73
2021/11/03 03:10:04;;;;;;;11.00;7.70;;;;;;;3.37;100.00;94772.84;5036346;28;20086;-72
2021/11/03 03:12:31;;;;;;;11.70;8.30;;;;;;;3.40;100.00;94772.56;5028062;28;20386;-72
2021/11/03 03:14:58;;;;;;;11.97;8.40;;;;;;;3.32;100.00;94769.91;5052432;28;20017;-73
2021/11/03 03:17:25;;;;;;;13.73;7.53;;;;;;;3.43;100.00;94777.47;5037060;28;20025;-74
2021/11/03 03:19:52;;;;;;;11.73;7.73;;;;;;;3.44;100.00;94776.47;5043293;28;20100;-74
2021/11/03 03:22:21;;;;;;;11.23;7.43;;;;;;;3.43;100.00;94776.66;5035749;28;20056;-73
2021/11/03 03:24:52;;;;;;;13.47;8.70;;;;;;;3.36;100.00;94770.44;5025402;28;20021;-74
2021/11/03 03:27:18;;;;;;;12.53;8.70;;;;;;;3.29;100.00;94767.63;5033716;28;20034;-72
2021/11/03 03:29:45;;;;;;;12.53;8.37;;;;;;;3.20;100.00;94768.50;5039683;28;20079;-74
2021/11/03 03:32:12;;;;;;;14.23;8.87;;;;;;;3.16;100.00;94757.59;5039118;28;20033;-74
2021/11/03 03:34:38;;;;;;;11.90;7.67;;;;;;;3.20;100.00;94758.94;5038969;28;20021;-74
2021/11/03 03:37:06;;;;;;;12.97;9.20;;;;;;;3.28;100.00;94761.56;5023402;28;20497;-74
2021/11/03 03:39:35;;;;;;;12.97;8.47;;;;;;;3.25;100.00;94767.09;5048800;28;20032;-74
2021/11/03 03:42:12;;;;;;;14.07;9.03;;;;;;;3.19;100.00;94772.88;5014231;28;20116;-73
2021/11/03 03:44:39;;;;;;;10.77;7.80;;;;;;;3.22;100.00;94774.34;5013365;28;20061;-74
2021/11/03 03:47:06;;;;;;;13.40;8.77;;;;;;;3.21;100.00;94764.94;5036072;28;20025;-74
2021/11/03 03:49:32;;;;;;;16.17;8.27;;;;;;;3.26;100.00;94765.31;5047519;28;20067;-73
2021/11/03 03:51:59;;;;;;;12.10;8.20;;;;;;;3.29;100.00;94760.63;5051349;28;20040;-73
2021/11/03 03:54:25;;;;;;;10.97;7.63;;;;;;;3.23;100.00;94760.41;5037297;28;20029;-73
2021/11/03 03:56:51;;;;;;;12.00;7.90;;;;;;;3.28;100.00;94763.38;5035591;28;20144;-73
2021/11/03 03:59:17;;;;;;;11.60;8.40;;;;;;;3.25;100.00;94751.50;5035335;28;20029;-72
2021/11/03 04:01:44;;;;;;;11.10;8.47;;;;;;;3.26;100.00;94752.31;5039178;28;20052;-74
2021/11/03 04:04:11;;;;;;;12.70;8.00;;;;;;;3.26;100.00;94749.72;5017882;28;20033;-74
2021/11/03 04:06:37;;;;;;;12.77;7.97;;;;;;;3.25;100.00;94741.13;5034104;28;20029;-74
2021/11/03 04:09:05;;;;;;;12.93;8.13;;;;;;;3.29;100.00;94746.81;5040528;28;20029;-74
2021/11/03 04:11:32;;;;;;;11.47;7.53;;;;;;;3.31;100.00;94757.88;5040613;28;20119;-74
2021/11/03 04:13:59;;;;;;;12.33;7.70;;;;;;;3.29;100.00;94752.03;5044044;28;20470;-73
2021/11/03 04:16:27;;;;;;;11.70;7.97;;;;;;;3.28;100.00;94758.97;5042182;28;20016;-73
2021/11/03 04:18:52;;;;;;;11.30;7.23;;;;;;;3.27;100.00;94754.75;5027368;28;20108;-74
2021/11/03 04:21:19;;;;;;;13.37;8.23;;;;;;;3.27;100.00;94751.34;5037661;28;20044;-72
2021/11/03 04:23:45;;;;;;;11.73;8.23;;;;;;;3.27;100.00;94749.56;5040885;28;20036;-72
2021/11/03 04:26:31;;;;;;;11.07;7.77;;;;;;;3.30;100.00;94759.66;5021228;28;20021;-72
2021/11/03 04:29:03;;;;;;;12.97;8.27;;;;;;;3.29;100.00;94754.63;5037440;28;20416;-72
2021/11/03 04:31:29;;;;;;;13.40;9.10;;;;;;;3.19;100.00;94741.72;5046231;28;20091;-74
2021/11/03 04:33:56;;;;;;;12.23;8.13;;;;;;;3.23;100.00;94750.84;5017270;28;20078;-74
2021/11/03 04:36:26;;;;;;;14.37;11.10;;;;;;;3.29;100.00;94741.63;5039148;28;20078;-74
2021/11/03 04:38:55;;;;;;;12.27;8.60;;;;;;;3.31;100.00;94743.09;5027458;28;20028;-74
2021/11/03 04:41:21;;;;;;;13.00;7.83;;;;;;;3.38;100.00;94742.50;5042493;28;20017;-74
2021/11/03 04:43:49;;;;;;;14.13;7.67;;;;;;;3.43;100.00;94740.25;5030544;28;20446;-74
2021/11/03 04:46:17;;;;;;;12.20;8.30;;;;;;;3.50;100.00;94746.47;5037841;28;20021;-74
2021/11/03 04:48:45;;;;;;;11.43;7.73;;;;;;;3.53;100.00;94735.78;5048143;28;20041;-74
2021/11/03 04:51:14;;;;;;;11.13;7.40;;;;;;;3.59;100.00;94742.13;5065114;28;20028;-74
2021/11/03 04:53:40;;;;;;;10.13;6.87;;;;;;;3.60;100.00;94741.19;5047094;28;20071;-74
2021/11/03 04:56:06;;;;;;;12.23;7.23;;;;;;;3.50;100.00;94738.69;5053659;28;20115;-74
2021/11/03 04:58:33;;;;;;;9.60;6.73;;;;;;;3.57;100.00;94733.69;5026240;28;20036;-74
2021/11/03 05:01:00;;;;;;;9.30;6.10;;;;;;;3.62;100.00;94734.03;5047970;28;20411;-74
2021/11/03 05:03:29;;;;;;;12.77;6.70;;;;;;;3.67;100.00;94732.63;5041585;28;20040;-74
2021/11/03 05:05:56;;;;;;;10.87;6.67;;;;;;;3.64;100.00;94737.31;5028793;28;20020;-72
2021/11/03 05:08:23;;;;;;;10.93;7.53;;;;;;;3.56;100.00;94735.47;5031968;28;20181;-74
2021/11/03 05:10:50;;;;;;;16.07;9.73;;;;;;;3.61;100.00;94728.03;5040619;28;20027;-74
2021/11/03 05:13:16;;;;;;;11.43;7.87;;;;;;;3.68;100.00;94729.03;5046940;28;20032;-74
2021/11/03 05:15:43;;;;;;;11.37;7.00;;;;;;;3.67;100.00;94727.41;5034917;28;20033;-74
2021/11/03 05:18:09;;;;;;;12.70;7.97;;;;;;;3.73;100.00;94726.00;5054615;28;20036;-74
2021/11/03 05:20:36;;;;;;;10.70;7.00;;;;;;;3.84;100.00;94707.50;5048495;28;20040;-73
2021/11/03 05:23:04;;;;;;;9.50;6.43;;;;;;;3.88;100.00;94714.03;5046788;28;20120;-74
2021/11/03 05:25:29;;;;;;;9.50;5.13;;;;;;;4.00;100.00;94702.38;5064198;28;20005;-74
2021/11/03 05:27:56;;;;;;;8.57;4.20;;;;;;;4.14;100.00;94707.97;5051991;28;20132;-73
2021/11/03 05:30:24;;;;;;;6.97;3.97;;;;;;;4.13;100.00;94688.94;5051109;28;20378;-74
2021/11/03 05:32:49;;;;;;;9.03;4.53;;;;;;;4.14;100.00;94693.16;5037165;28;20029;-74
2021/11/03 05:35:16;;;;;;;7.17;3.63;;;;;;;4.22;100.00;94698.38;5036811;28;20044;-74
2021/11/03 05:37:42;;;;;;;5.93;3.87;;;;;;;4.22;100.00;94700.97;5061460;28;20044;-74
2021/11/03 05:40:12;;;;;;;5.80;3.80;;;;;;;4.26;100.00;94693.72;5040370;28;20057;-74
2021/11/03 05:42:38;;;;;;;8.40;3.30;;;;;;;4.24;100.00;94688.66;5063136;28;20086;-74
2021/11/03 05:45:05;;;;;;;9.27;3.37;;;;;;;4.29;100.00;94693.38;5063056;28;20104;-74
2021/11/03 05:47:31;;;;;;;7.70;3.80;;;;;;;4.25;100.00;94690.25;5050927;28;20119;-73
2021/11/03 05:49:57;;;;;;;7.73;4.23;;;;;;;4.23;100.00;94692.22;5054950;28;20103;-74
2021/11/03 05:52:24;;;;;;;6.73;4.20;;;;;;;4.24;100.00;94690.44;5046376;28;20062;-73
2021/11/03 05:54:50;;;;;;;6.27;3.10;;;;;;;4.24;100.00;94672.22;5035573;28;20052;-73
2021/11/03 05:57:26;;;;;;;5.90;3.10;;;;;;;4.16;100.00;94690.44;5059641;28;20059;-73
2021/11/03 05:59:53;;;;;;;6.77;3.80;;;;;;;4.12;100.00;94679.50;5031519;28;20489;-73
2021/11/03 06:02:20;;;;;;;7.10;3.77;;;;;;;4.12;100.00;94676.06;5043081;28;20029;-73
2021/11/03 06:04:45;;;;;;;5.33;3.30;;;;;;;4.17;100.00;94676.44;5054416;28;20029;-73
2021/11/03 06:07:12;;;;;;;5.83;3.43;;;;;;;4.16;100.00;94675.63;5070822;28;20036;-73
2021/11/03 06:09:39;;;;;;;5.50;3.33;;;;;;;4.17;100.00;94673.84;5040890;28;20044;-73
2021/11/03 06:12:05;;;;;;;6.63;3.60;;;;;;;4.16;100.00;94677.41;5047662;28;20100;-73
2021/11/03 06:14:31;;;;;;;6.43;3.50;;;;;;;4.20;100.00;94681.31;5044493;28;20552;-73
2021/11/03 06:16:57;;;;;;;7.13;3.37;;;;;;;4.25;100.00;94668.63;5032712;28;20029;-74
2021/11/03 06:19:23;;;;;;;5.53;3.27;;;;;;;4.27;100.00;94663.28;5043120;28;20079;-74
2021/11/03 06:21:48;;;;;;;4.70;2.47;;;;;;;4.29;100.00;94664.75;5067131;28;20025;-74
2021/11/03 06:24:14;;;;;;;5.43;3.03;;;;;;;4.28;100.00;94657.91;5038351;28;20604;-73
2021/11/03 06:26:40;;;;;;;7.17;3.07;;;;;;;4.31;100.00;94647.19;5062539;28;20447;-74
2021/11/03 06:29:07;;;;;;;4.73;2.93;;;;;;;4.28;100.00;94644.91;5055828;28;20028;-74
2021/11/03 06:31:34;;;;;;;6.80;3.10;;;;;;;4.18;100.00;94646.84;5029274;28;20024;-74
2021/11/03 06:34:02;;;;;;;5.97;4.00;;;;;;;4.17;100.00;94650.41;5041856;28;20393;-74
2021/11/03 06:36:28;;;;;;;8.53;5.57;;;;;;;4.10;100.00;94654.63;5056871;28;20023;-74
2021/11/03 06:38:54;;;;;;;8.83;3.47;;;;;;;4.24;100.00;94656.59;5047296;28;20067;-74
2021/11/03 06:41:20;;;;;;;8.37;4.50;;;;;;;4.13;100.00;94649.91;5040356;28;20095;-74
2021/11/03 06:43:48;;;;;;;4.20;2.00;;;;;;;4.46;100.00;94650.81;5046282;28;20057;-74
2021/11/03 06:46:14;;;;;;;4.13;1.90;;;;;;;4.62;100.00;94643.97;5036288;28;20025;-73
2021/11/03 06:48:40;;;;;;;3.70;1.77;;;;;;;4.72;100.00;94636.81;5049745;28;20024;-74
2021/11/03 06:51:06;;;;;;;2.67;1.47;;;;;;;4.82;100.00;94639.25;5041347;28;20075;-73
2021/11/03 06:53:33;;;;;;;2.47;1.40;;;;;;;4.85;100.00;94631.94;5056416;28;20091;-74
2021/11/03 06:55:59;;;;;;;2.70;1.60;;;;;;;4.95;100.00;94621.34;5038205;28;20112;-73
2021/11/03 06:58:28;;;;;;;4.20;2.43;;;;;;;4.93;100.00;94618.13;5017458;28;20580;-74
2021/11/03 07:00:55;;;;;;;4.93;2.80;;;;;;;4.87;100.00;94616.16;5026114;28;20078;-74
2021/11/03 07:03:23;;;;;;;6.80;3.90;;;;;;;4.91;100.00;94623.47;5037203;28;20136;-74
2021/11/03 07:05:50;;;;;;;6.67;3.27;;;;;;;4.79;100.00;94616.16;5033133;28;20029;-74
2021/11/03 07:08:18;;;;;;;3.77;2.10;;;;;;;4.93;100.00;94616.31;5042092;28;20371;-73
2021/11/03 07:10:46;;;;;;;5.07;2.63;;;;;;;5.01;100.00;94612.06;5048778;28;20032;-74
2021/11/03 07:13:13;;;;;;;4.60;2.37;;;;;;;4.86;100.00;94607.53;5042068;28;20025;-73
2021/11/03 07:15:39;;;;;;;4.37;2.30;;;;;;;4.89;100.00;94617.59;5038366;28;20383;-73
2021/11/03 07:18:06;;;;;;;4.60;2.43;;;;;;;5.04;100.00;94628.19;5052538;28;20540;-74
2021/11/03 07:20:33;;;;;;;5.37;2.20;;;;;;;5.08;100.00;94631.28;5034974;28;20048;-74
2021/11/03 07:22:59;;;;;;;6.13;2.33;;;;;;;5.10;100.00;94637.16;5051662;28;20036;-74
2021/11/03 07:25:25;;;;;;;3.13;1.70;;;;;;;5.23;100.00;94634.00;5048606;28;20042;-74
2021/11/03 07:27:53;;;;;;;4.90;2.10;;;;;;;5.13;100.00;94635.03;5041127;28;20052;-74
2021/11/03 07:30:22;;;;;;;3.27;1.60;;;;;;;5.13;100.00;94636.78;5055100;28;20067;-73
2021/11/03 07:32:48;;;;;;;4.17;1.90;;;;;;;5.11;100.00;94626.53;5035619;28;20059;-73
2021/11/03 07:35:14;;;;;;;3.60;1.70;;;;;;;5.04;100.00;94629.97;5038518;28;20398;-74
2021/11/03 07:37:40;;;;;;;3.57;1.63;;;;;;;5.07;100.00;94624.44;5028711;28;20032;-73
2021/11/03 07:40:11;;;;;;;4.67;1.93;;;;;;;5.25;100.00;94629.47;5031062;28;20453;-73
2021/11/03 07:42:37;;;;;;;3.63;1.50;;;;;;;5.30;100.00;94616.72;5037144;28;20033;-74
2021/11/03 07:45:04;;;;;;;4.70;1.40;;;;;;;5.45;100.00;94630.72;5050471;28;20094;-74
2021/11/03 07:47:30;;;;;;;1.60;1.00;;;;;;;6.49;96.53;94636.63;5038735;28;20490;-74
2021/11/03 07:49:55;;;;;;;2.33;0.70;;;;;;;7.43;86.39;94632.75;5062573;28;20024;-73
2021/11/03 07:52:21;;;;;;;1.07;0.60;;;;;;;8.00;84.36;94644.38;5034148;28;20025;-74
2021/11/03 07:54:47;;;;;;;1.23;0.53;;;;;;;7.09;85.88;94660.19;5030035;28;20071;-73
2021/11/03 07:57:15;;;;;;;4.73;1.43;;;;;;;6.76;87.62;94656.22;5034678;28;20699;-74
2021/11/03 07:59:42;;;;;;;2.67;0.80;;;;;;;6.53;91.00;94654.38;5024445;28;20110;-75
2021/11/03 08:02:09;;;;;;;1.73;0.70;;;;;;;6.47;90.76;94649.88;5040671;28;20116;-74
2021/11/03 08:04:35;;;;;;;1.20;0.80;;;;;;;6.31;90.20;94644.75;5021794;28;20470;-74
2021/11/03 08:07:01;;;;;;;1.73;0.73;;;;;;;6.25;92.17;94627.97;5025933;28;20028;-74
2021/11/03 08:09:27;;;;;;;2.30;0.90;;;;;;;6.22;91.83;94612.66;5043276;28;20020;-72
2021/11/03 08:11:58;;;;;;;2.37;1.10;;;;;;;6.22;92.95;94610.03;5045096;28;20039;-74
2021/11/03 08:14:27;;;;;;;2.53;0.83;;;;;;;6.38;92.93;94611.75;5056553;28;20119;-74
2021/11/03 08:17:01;;;;;;;1.07;0.80;;;;;;;6.47;90.50;94604.66;5061836;28;20033;-74
2021/11/03 08:19:37;;;;;;;1.33;0.83;;;;;;;6.49;90.87;94602.69;5014255;28;20032;-74
2021/11/03 08:22:04;;;;;;;2.33;0.87;;;;;;;6.78;90.10;94596.78;5029128;28;20123;-73
2021/11/03 08:24:30;;;;;;;3.03;0.90;;;;;;;6.98;88.21;94590.06;5032513;28;20025;-73
2021/11/03 08:26:56;;;;;;;1.63;0.80;;;;;;;7.06;87.89;94594.38;5036002;28;20033;-73
2021/11/03 08:29:23;;;;;;;1.63;0.80;;;;;;;7.07;87.94;94601.22;5021568;28;20029;-73
2021/11/03 08:31:55;;;;;;;1.23;0.73;;;;;;;7.12;87.57;94619.81;5033759;28;20048;-74
2021/11/03 08:34:26;;;;;;;2.47;1.00;;;;;;;7.11;87.32;94594.69;5031478;28;20052;-73
2021/11/03 08:36:55;;;;;;;2.27;0.80;;;;;;;6.97;91.45;94585.00;5038829;28;20041;-74
2021/11/03 08:39:21;;;;;;;17.83;11.17;;;;;;;6.97;96.12;94567.50;5055181;28;20028;-73
2021/11/03 08:41:47;;;;;;;9.33;5.67;;;;;;;6.86;97.61;94552.25;5028952;28;20033;-73
2021/11/03 08:44:13;;;;;;;7.23;4.40;;;;;;;6.75;98.37;94556.13;5051086;28;20017;-73
2021/11/03 08:46:41;;;;;;;5.20;1.23;;;;;;;6.79;97.33;94577.47;5033106;28;20517;-73
2021/11/03 08:49:07;;;;;;;3.30;1.10;;;;;;;6.78;97.55;94568.84;5044814;28;20472;-74
2021/11/03 08:51:34;;;;;;;2.47;1.10;;;;;;;6.59;98.50;94567.50;5047095;28;20064;-73
2021/11/03 08:54:04;;;;;;;2.07;1.03;;;;;;;6.64;98.78;94580.06;5051433;28;20017;-73
2021/11/03 08:56:30;;;;;;;1.77;0.80;;;;;;;6.71;95.80;94583.59;5022138;28;20032;-73
2021/11/03 08:58:56;;;;;;;5.10;1.10;;;;;;;6.83;97.88;94583.97;5045264;28;20025;-74
2021/11/03 09:01:22;;;;;;;3.53;1.20;;;;;;;6.79;96.62;94585.31;5056091;28;20099;-74
2021/11/03 09:03:50;;;;;;;2.07;0.80;;;;;;;6.77;94.75;94582.06;5013190;28;20036;-75
2021/11/03 09:06:16;;;;;;;2.10;0.90;;;;;;;6.93;93.03;94581.13;5041933;28;20028;-74
2021/11/03 09:08:46;;;;;;;3.37;1.10;;;;;;;7.04;88.17;94572.84;5037711;28;20047;-72
2021/11/03 09:11:12;;;;;;;1.73;0.93;;;;;;;7.00;94.05;94589.88;5044468;28;20045;-74
2021/11/03 09:13:38;;;;;;;4.90;0.90;;;;;;;7.08;92.49;94584.59;5047860;28;20084;-72
2021/11/03 09:16:04;;;;;;;3.93;1.43;;;;;;;7.28;87.68;94577.03;5050158;28;20041;-74
2021/11/03 09:18:31;;;;;;;2.97;0.70;;;;;;;7.38;86.53;94580.19;5032972;28;20021;-73
2021/11/03 09:20:58;;;;;;;1.57;0.60;;;;;;;7.50;86.48;94564.84;5038986;28;20037;-74
2021/11/03 09:23:25;;;;;;;4.27;1.10;;;;;;;7.31;87.31;94581.91;5016402;28;20025;-74
2021/11/03 09:25:53;;;;;;;1.63;1.00;;;;;;;7.48;86.78;94587.78;5037117;28;20628;-75
2021/11/03 09:28:20;;;;;;;3.27;1.00;;;;;;;7.18;87.28;94573.88;5030634;28;20032;-74
2021/11/03 09:30:46;;;;;;;1.60;0.90;;;;;;;7.08;88.52;94577.53;5032519;28;20061;-73
2021/11/03 09:33:12;;;;;;;1.73;0.80;;;;;;;7.15;88.92;94579.44;5030504;28;20025;-73
2021/11/03 09:35:48;;;;;;;3.57;1.10;;;;;;;7.19;89.31;94573.69;5048889;28;20127;-73
2021/11/03 09:38:17;;;;;;;1.57;0.93;;;;;;;7.12;90.06;94571.97;5052134;28;20036;-74
2021/11/03 09:40:52;;;;;;;1.67;0.90;;;;;;;7.17;89.95;94572.22;5058116;28;20087;-73
2021/11/03 09:43:34;;;;;;;1.60;0.90;;;;;;;6.91;91.38;94572.63;5049246;28;20378;-73
2021/11/03 09:46:14;;;;;;;2.35;1.10;;;;;;;7.02;91.80;94578.25;5040200;28;20025;-73
2021/11/03 09:48:40;;;;;;;5.30;1.00;;;;;;;7.14;92.78;94575.19;5051457;28;20033;-74
2021/11/03 09:51:17;;;;;;;2.87;1.30;;;;;;;7.22;92.58;94577.75;5046736;28;20801;-73
2021/11/03 09:53:53;;;;;;;3.40;1.50;;;;;;;7.18;92.22;94574.69;5032390;28;20044;-74
2021/11/03 09:56:35;;;;;;;2.47;1.20;;;;;;;7.29;91.68;94578.66;5041905;28;20040;-74
2021/11/03 09:59:01;;;;;;;4.17;1.30;;;;;;;7.41;92.58;94576.38;5033576;28;20025;-74
2021/11/03 10:01:54;;;;;;;5.73;3.40;;;;;;;7.54;92.53;94587.03;5038297;28;20056;-75
2021/11/03 10:04:47;;;;;;;4.73;2.13;;;;;;;7.48;92.76;94591.19;5057747;28;20052;-75
2021/11/03 10:07:17;;;;;;;2.72;1.48;;;;;;;7.50;92.16;94581.34;5050811;28;20040;-75
2021/11/03 10:09:43;;;;;;;3.50;1.60;;;;;;;7.36;91.89;94569.09;5052916;28;20097;-76
2021/11/03 10:12:15;;;;;;;4.40;1.40;;;;;;;7.32;92.94;94573.06;5038998;28;20060;-79
2021/11/03 10:14:41;;;;;;;2.73;1.33;;;;;;;6.98;93.98;94570.94;5033929;28;20496;-76
2021/11/03 10:17:26;;;;;;;2.30;1.20;;;;;;;7.06;93.33;94565.63;5038031;28;20111;-76
2021/11/03 10:19:53;;;;;;;2.73;1.33;;;;;;;6.99;94.30;94562.13;5040065;28;20037;-75
2021/11/03 10:22:38;;;;;;;3.37;1.47;;;;;;;6.96;93.83;94546.78;5043124;28;20032;-75
2021/11/03 10:25:26;;;;;;;2.97;1.40;;;;;;;6.95;94.37;94534.72;5028231;28;20094;-76
2021/11/03 10:27:59;;;;;;;4.97;2.17;;;;;;;6.94;94.88;94528.69;5035663;28;20047;-76
2021/11/03 10:30:49;;;;;;;3.73;1.70;;;;;;;7.01;94.62;94520.94;5018873;28;20035;-75
2021/11/03 10:33:29;;;;;;;4.43;1.87;;;;;;;7.16;93.93;94518.31;5012332;28;20116;-76
2021/11/03 10:36:00;;;;;;;5.47;2.30;;;;;;;7.13;94.40;94527.31;5028186;28;20668;-76
2021/11/03 10:38:28;;;;;;;2.53;1.40;;;;;;;7.00;94.70;94535.78;5033679;28;20083;-75
2021/11/03 10:41:05;;;;;;;3.23;1.77;;;;;;;7.16;94.70;94540.03;5032430;28;20432;-74
2021/11/03 10:43:42;;;;;;;4.13;1.57;;;;;;;7.27;93.86;94531.75;5034246;28;20036;-74
2021/11/03 10:46:22;;;;;;;3.60;1.60;;;;;;;7.44;92.61;94544.63;5054402;28;20089;-72
2021/11/03 10:48:55;;;;;;;2.03;1.10;;;;;;;7.35;92.63;94546.56;5036782;28;20052;-73
2021/11/03 10:51:38;;;;;;;6.00;2.20;;;;;;;7.57;93.10;94547.44;5040120;28;20711;-74
2021/11/03 10:54:20;;;;;;;5.17;2.67;;;;;;;7.59;92.92;94545.44;5051193;28;20066;-74
2021/11/03 10:57:13;;;;;;;5.43;2.70;;;;;;;7.74;92.17;94550.66;5050472;28;20032;-73
2021/11/03 10:59:48;;;;;;;4.70;1.73;;;;;;;7.78;91.54;94544.09;5057909;28;20669;-73
2021/11/03 11:02:26;;;;;;;3.77;1.60;;;;;;;7.71;90.24;94541.38;5041069;28;20040;-73
2021/11/03 11:04:53;;;;;;;4.40;1.60;;;;;;;7.78;90.56;94541.47;5027041;28;20032;-74
2021/11/03 11:07:38;;;;;;;3.87;1.80;;;;;;;7.83;90.88;94539.09;5050771;28;20016;-74
2021/11/03 11:10:32;;;;;;;2.83;1.43;;;;;;;7.82;91.73;94539.28;5045567;28;20794;-74
2021/11/03 11:13:00;;;;;;;3.47;1.63;;;;;;;7.86;90.81;94540.53;5051003;28;20025;-74
2021/11/03 11:15:26;;;;;;;3.63;1.50;;;;;;;7.75;92.77;94533.97;5048562;28;20029;-74
2021/11/03 11:18:03;;;;;;;3.40;1.80;;;;;;;7.82;93.21;94534.84;5015012;28;20041;-73
2021/11/03 11:20:29;;;;;;;3.67;1.77;;;;;;;7.83;93.72;94526.00;5040312;28;20031;-73
2021/11/03 11:23:09;;;;;;;5.13;2.40;;;;;;;7.99;93.06;94522.38;5022764;28;21339;-73
2021/11/03 11:25:45;;;;;;;4.20;1.50;;;;;;;7.76;93.59;94523.31;5036853;28;20029;-75
2021/11/03 11:28:36;;;;;;;3.93;2.07;;;;;;;7.78;93.52;94529.19;5034552;28;20033;-74
2021/11/03 11:31:41;;;;;;;4.23;2.20;;;;;;;7.80;93.41;94537.66;5034243;28;20116;-75
2021/11/03 11:34:25;;;;;;;5.90;1.90;;;;;;;7.85;93.81;94544.16;5008889;28;20037;-75
2021/11/03 11:37:03;;;;;;;5.63;2.17;;;;;;;7.83;93.89;94538.28;5028185;28;20087;-75
2021/11/03 11:39:33;;;;;;;4.33;1.87;;;;;;;7.91;93.55;94528.50;5030625;28;20040;-74
2021/11/03 11:42:10;;;;;;;4.93;2.10;;;;;;;8.06;94.53;94527.66;5035562;28;20048;-74